Grayling, Michigan
Current Conditions -  °F | °C
As of 8:55 AM on Wednesday 26 Nov 2014 (Local Time) from KGOV Reporting Station
Overcast Overcast  
Wind Chill: 18°   Ceiling: 2400
Heat Index: 24°   Visibility: 10mi
Dew Point: 22°   Wind: 5mph
Humidity: 89%   Direction: 100°E
Pressure: 30.16"   Gusts: NA
Location:  44.66°N, 84.71°W
Report Text: KGOV 261355Z AUTO 10004KT 10SM OVC024 M04/M06 A3016 RMK AO2 T10431058
Loading
Personal Weather Stations






























Interactive Weather Map New forecast layout! Learn more

10-Day Weather Forecast

Advertisements
Track Severe Weather on mobile